Data for 07/24/2013

Time Sea-Level Adjusted Pressure Absolute Pressure Temperature Relative Humidity Dew Point Precipitation   
(mb) (inHg) (mb) (inHg) (C) (F) (%) (C) (F) (mm) (in)
00:05 1024 30.24 853 25.19 21 69.8 39 6.9 44.4 0 0
00:10 1024 30.24 853 25.19 20.9 69.7 41 7.2 44.9 0 0
00:15 1024 30.24 853 25.19 20.8 69.5 40 7.1 44.7 0 0
00:20 1024 30.24 853 25.19 20.8 69.4 41 7.1 44.8 0 0
00:25 1024 30.24 853 25.19 20.8 69.4 41 7.2 45 0 0
00:30 1024 30.24 853 25.19 20.7 69.2 40 6.9 44.5 0 0
00:35 1024 30.24 853 25.19 20.6 69.2 41 7.1 44.9 0 0
00:40 1024 30.24 853 25.19 20.5 68.9 41 7 44.5 0 0
00:45 1024 30.24 853 25.19 20.6 69 41 7.2 44.9 0 0
00:50 1024 30.24 853 25.19 20.5 68.9 42 7.2 44.9 0 0
00:55 1024 30.24 853 25.19 20.4 68.8 42 7.1 44.8 0 0
01:00 1024 30.24 853 25.19 20.4 68.6 42 7.1 44.9 0 0
01:05 1024 30.24 853 25.19 20.2 68.4 43 7.2 45 0 0
01:10 1024 30.24 853 25.19 20.1 68.1 43 7.3 45.1 0 0
01:15 1024 30.24 853 25.19 19.9 67.9 44 7.6 45.7 0 0
01:20 1024 30.24 853 25.19 19.8 67.6 44 7.4 45.3 0 0
01:25 1024 30.24 853 25.19 19.7 67.5 44 7.3 45.2 0 0
01:30 1024 30.24 853 25.19 19.7 67.5 44 7.1 44.9 0 0
01:35 1024 30.24 853 25.19 19.8 67.7 44 7.4 45.3 0 0
01:40 1024 30.24 853 25.19 19.7 67.4 45 7.6 45.7 0 0
01:45 1024 30.24 853 25.19 19.5 67.1 45 7.5 45.5 0 0
01:50 1024 30.24 853 25.19 19.5 67 46 7.6 45.6 0 0
01:55 1024 30.24 853 25.19 19.3 66.7 46 7.6 45.7 0 0
02:00 1024 30.24 853 25.19 19.2 66.5 47 7.8 46 0 0
02:05 1024 30.24 853 25.19 19.1 66.4 47 7.5 45.5 0 0
02:10 1024 30.24 853 25.19 19 66.2 48 7.7 45.9 0 0
02:15 1024 30.24 853 25.19 18.8 65.8 48 7.6 45.7 0 0
02:20 1024 30.24 853 25.19 18.8 65.8 48 7.7 45.8 0 0
02:25 1024 30.24 853 25.19 18.7 65.6 48 7.6 45.6 0 0
02:30 1024 30.24 853 25.19 18.7 65.7 48 7.7 45.9 0 0
02:35 1024 30.24 853 25.19 18.6 65.5 49 7.8 46 0 0
02:40 1024 30.24 853 25.19 18.6 65.4 48 7.6 45.6 0 0
02:45 1024 30.24 853 25.19 18.5 65.3 49 7.7 45.9 0 0
02:50 1024 30.24 853 25.19 18.6 65.4 48 7.4 45.3 0 0
02:55 1024 30.24 853 25.19 18.7 65.7 49 7.9 46.2 0 0
03:00 1024 30.24 853 25.19 18.3 65 50 7.7 45.9 0 0
03:05 1024 30.24 853 25.19 18.5 65.3 49 7.6 45.7 0 0
03:10 1024 30.24 853 25.19 18.6 65.5 47 7.3 45.2 0 0
03:15 1024 30.24 853 25.19 18.7 65.6 48 7.5 45.5 0 0
03:20 1024 30.24 853 25.19 18.7 65.6 47 7.4 45.2 0 0
03:25 1024 30.24 853 25.19 18.8 65.8 47 7.4 45.4 0 0
03:30 1024 30.24 853 25.19 18.7 65.7 48 7.6 45.6 0 0
03:35 1024 30.24 853 25.19 18.6 65.5 47 7.2 45 0 0
03:40 1024 30.24 853 25.19 18.8 65.9 47 7.4 45.3 0 0
03:45 1024 30.24 853 25.19 18.7 65.7 48 7.5 45.6 0 0
03:50 1024 30.24 853 25.19 18.6 65.5 48 7.6 45.7 0 0
03:55 1024 30.24 853 25.19 18.5 65.3 48 7.5 45.4 0 0
04:00 1024 30.24 853 25.19 18.5 65.3 49 7.6 45.7 0 0
04:05 1024 30.24 853 25.19 18.4 65.2 48 7.5 45.4 0 0
04:10 1024 30.24 853 25.19 18.4 65.1 49 7.7 45.8 0 0
04:15 1024 30.24 853 25.19 18.4 65.2 48 7.4 45.3 0 0
04:20 1024 30.24 853 25.19 18.5 65.3 49 7.6 45.7 0 0
04:25 1024 30.24 853 25.19 18.4 65.1 49 7.7 45.8 0 0
04:30 1024 30.24 853 25.19 18.3 65 49 7.6 45.7 0 0
04:35 1024 30.24 853 25.19 18.4 65.1 49 7.6 45.7 0 0
04:40 1024 30.24 853 25.19 18.3 65 49 7.6 45.7 0 0
04:45 1024 30.24 853 25.19 18.4 65.1 49 7.8 46 0 0
04:50 1024 30.24 853 25.19 18.4 65.1 49 7.7 45.9 0 0
04:55 1024 30.24 853 25.19 18.4 65.1 49 7.6 45.7 0 0
05:00 1024 30.24 853 25.19 18.4 65.1 50 7.8 46 0 0
05:05 1024 30.24 853 25.19 18.4 65.2 49 7.7 45.8 0 0
05:10 1024 30.24 853 25.19 18.3 65 50 7.7 45.9 0 0
05:15 1024 30.24 853 25.19 18.3 64.9 50 7.8 46 0 0
05:20 1024 30.24 853 25.19 18.3 64.9 49 7.6 45.7 0 0
05:25 1024 30.24 853 25.19 18.4 65.1 50 7.8 46 0 0
05:30 1024 30.24 853 25.19 18.4 65.1 50 7.8 46.1 0 0
05:35 1024 30.24 853 25.19 18.2 64.8 51 7.9 46.3 0 0
05:40 1024 30.24 853 25.19 18.1 64.6 50 7.7 45.8 0 0
05:45 1024 30.24 853 25.19 18.2 64.7 50 7.6 45.7 0 0
05:50 1024 30.24 853 25.19 18.1 64.5 50 7.6 45.7 0 0
05:55 1024 30.24 853 25.19 18 64.4 50 7.5 45.6 0 0
06:00 1024 30.24 853 25.19 17.9 64.3 50 7.6 45.7 0 0
06:05 1024 30.24 853 25.19 18 64.4 50 7.5 45.4 0 0
06:10 1024 30.24 853 25.19 18.1 64.5 50 7.6 45.7 0 0
06:15 1024 30.24 853 25.19 18 64.4 50 7.5 45.6 0 0
06:20 1024 30.24 853 25.19 18 64.5 51 7.9 46.2 0 0
06:25 1024 30.24 853 25.19 17.9 64.3 51 7.7 45.9 0 0
06:30 1024 30.24 853 25.19 17.6 63.7 55 8.5 47.3 0 0
06:35 1024 30.24 853 25.19 17.2 62.9 54 7.8 46.1 0 0
06:40 1024 30.24 853 25.19 17.6 63.6 51 7.4 45.4 0 0
06:45 1024 30.24 853 25.19 17.9 64.3 51 7.9 46.2 0 0
06:50 1024 30.24 853 25.19 17.5 63.5 55 8.6 47.4 0 0
06:55 1024 30.24 853 25.19 17.1 62.7 55 7.9 46.3 0 0
07:00 1024 30.24 853 25.19 17.2 63 53 7.8 46 0 0
07:05 1024 30.24 853 25.19 17.3 63.2 56 8.6 47.4 0 0
07:10 1024 30.24 853 25.19 17.5 63.4 49 6.7 44.1 0 0
07:15 1024 30.24 853 25.19 18.2 64.7 49 7.3 45.2 0 0
07:20 1024 30.24 853 25.19 18.4 65.1 48 7.3 45.1 0 0
07:25 1024 30.24 853 25.19 18.5 65.3 47 7.2 45 0 0
07:30 1024 30.24 853 25.19 18.6 65.5 47 7.4 45.2 0 0
07:35 1024 30.24 853 25.19 18.6 65.6 47 7.3 45.1 0 0
07:40 1024 30.24 853 25.19 18.6 65.5 47 7.2 45 0 0
07:45 1024 30.24 853 25.19 18.7 65.6 47 7.4 45.3 0 0
07:50 1024 30.24 853 25.19 18.8 65.8 50 8.4 47.1 0 0
07:55 1023 30.21 853 25.19 18.8 65.8 47 7.3 45.1 0 0
08:00 1023 30.21 853 25.19 19 66.2 45 7 44.6 0 0
08:05 1023 30.21 852 25.16 19.2 66.6 43 6.6 43.9 0 0
08:10 1023 30.21 853 25.19 19.3 66.7 44 6.9 44.5 0 0
08:15 1023 30.21 853 25.19 19.4 66.9 43 6.7 44.1 0 0
08:20 1023 30.21 853 25.19 19.5 67.2 43 6.6 43.9 0 0
08:25 1023 30.21 853 25.19 19.6 67.3 43 6.9 44.4 0 0
08:30 1024 30.24 853 25.19 19.7 67.5 45 7.7 45.9 0 0
08:35 1024 30.24 853 25.19 19.8 67.7 47 8.2 46.8 0 0
08:40 1024 30.24 853 25.19 19.7 67.5 48 8.5 47.3 0 0
08:45 1024 30.24 853 25.19 19.7 67.4 44 7.4 45.3 0 0
08:50 1024 30.24 853 25.19 19.7 67.4 53 10 50 0 0
08:55 1024 30.24 853 25.19 19.8 67.6 47 8.4 47.1 0 0
09:00 1024 30.24 853 25.19 20.1 68.1 44 7.7 45.9 0 0
09:05 1024 30.24 853 25.19 20.6 69 44 8.2 46.7 0 0
09:10 1024 30.24 853 25.19 20.7 69.2 40 6.7 44 0 0
09:15 1024 30.24 853 25.19 20.8 69.5 45 8.7 47.6 0 0
09:20 1024 30.24 853 25.19 20.7 69.3 42 7.6 45.7 0 0
09:25 1024 30.24 853 25.19 20.5 68.9 48 9.2 48.6 0 0
09:30 1024 30.24 853 25.19 20.3 68.5 48 9 48.1 0 0
09:35 1024 30.24 853 25.19 20.1 68.1 45 7.9 46.2 0 0
09:40 1024 30.24 853 25.19 20.2 68.4 42 7.1 44.9 0 0
09:45 1024 30.24 853 25.19 20.4 68.6 44 7.8 46.1 0 0
09:50 1024 30.24 853 25.19 20.5 68.9 42 7.2 45 0 0
09:55 1024 30.24 853 25.19 20.8 69.4 43 7.9 46.2 0 0
10:00 1024 30.24 853 25.19 21 69.8 41 7.6 45.7 0 0
10:05 1023 30.21 853 25.19 21.3 70.3 45 9.1 48.3 0 0
10:10 1023 30.21 853 25.19 21.7 71 39 7.3 45.1 0 0
10:15 1023 30.21 853 25.19 21.9 71.5 39 7.6 45.7 0 0
10:20 1023 30.21 853 25.19 21.9 71.4 39 7.5 45.5 0 0
10:25 1023 30.21 853 25.19 22.1 71.8 40 7.9 46.2 0 0
10:30 1023 30.21 853 25.19 22.1 71.8 38 7.3 45.2 0 0
10:35 1023 30.21 853 25.19 21.9 71.4 39 7.6 45.8 0 0
10:40 1023 30.21 853 25.19 22 71.7 37 6.8 44.2 0 0
10:45 1023 30.21 853 25.19 22 71.5 40 8.1 46.6 0 0
10:50 1023 30.21 852 25.16 22 71.6 38 7.4 45.3 0 0
10:55 1023 30.21 852 25.16 22.1 71.8 37 6.9 44.4 0 0
11:00 1023 30.21 852 25.16 22 71.7 38 7.4 45.4 0 0
11:05 1023 30.21 852 25.16 22.4 72.3 37 7.2 45 0 0
11:10 1023 30.21 852 25.16 22.4 72.2 38 7.7 45.8 0 0
11:15 1023 30.21 852 25.16 22.6 72.6 40 8.3 46.9 0 0
11:20 1023 30.21 852 25.16 23 73.4 36 7.5 45.5 0 0
11:25 1023 30.21 852 25.16 23.1 73.5 37 7.6 45.7 0 0
11:30 1023 30.21 852 25.16 23.2 73.7 36 7.4 45.4 0 0
11:35 1023 30.21 852 25.16 23.3 73.9 35 7.2 44.9 0 0
11:40 1023 30.21 852 25.16 23.5 74.3 35 7.2 45 0 0
11:45 1023 30.21 852 25.16 23.6 74.4 38 8.8 47.8 0 0
11:50 1023 30.21 852 25.16 23.7 74.6 33 6.7 44 0 0
11:55 1023 30.21 852 25.16 23.9 75 33 6.8 44.2 0 0
12:00 1023 30.21 852 25.16 23.9 75 34 7.5 45.4 0 0
12:05 1023 30.21 852 25.16 24.5 76.1 33 7.3 45.2 0 0
12:10 1023 30.21 852 25.16 24.8 76.6 34 7.9 46.2 0 0
12:15 1023 30.21 852 25.16 24.9 76.7 36 9.1 48.4 0 0
12:20 1023 30.21 852 25.16 25.1 77.1 31 6.9 44.5 0 0
12:25 1022 30.18 852 25.16 25.3 77.5 35 9.1 48.5 0 0
12:30 1022 30.18 852 25.16 25 77 32 7.4 45.4 0 0
12:35 1022 30.18 852 25.16 25.7 78.3 32 7.9 46.3 0 0
12:40 1022 30.18 851 25.13 25.8 78.4 32 8.1 46.6 0 0
12:45 1022 30.18 851 25.13 25.7 78.3 31 7.6 45.7 0 0
12:50 1022 30.18 851 25.13 26.1 78.9 33 8.7 47.7 0 0
12:55 1022 30.18 851 25.13 26.4 79.6 30 7.9 46.1 0 0
13:00 1022 30.18 851 25.13 26.7 80.1 31 8.3 46.9 0 0
13:05 1022 30.18 851 25.13 27.3 81.1 30 8.2 46.8 0 0
13:10 1022 30.18 851 25.13 27 80.6 30 8.1 46.6 0 0
13:15 1022 30.18 851 25.13 27.1 80.7 30 8.4 47 0 0
13:20 1022 30.18 851 25.13 27.2 81 30 8.6 47.5 0 0
13:25 1022 30.18 851 25.13 27.1 80.7 30 8.2 46.8 0 0
13:30 1022 30.18 851 25.13 27.3 81.1 27 7.1 44.8 0 0
13:35 1022 30.18 851 25.13 27.6 81.7 30 8.8 47.8 0 0
13:40 1022 30.18 851 25.13 27.8 82 26 7.1 44.7 0 0
13:45 1022 30.18 851 25.13 27.9 82.2 26 6.8 44.2 0 0
13:50 1022 30.18 851 25.13 28.3 82.9 30 9.4 48.9 0 0
13:55 1022 30.18 851 25.13 28.4 83.1 26 7.1 44.9 0 0
14:00 1022 30.18 851 25.13 28.5 83.2 25 6.8 44.2 0 0
14:05 1022 30.18 851 25.13 28.9 84.1 24 6.8 44.2 0 0
14:10 1022 30.18 851 25.13 28.7 83.6 23 6 42.9 0 0
14:15 1021 30.15 851 25.13 28.8 83.8 21 4.6 40.2 0 0
14:20 1021 30.15 851 25.13 29 84.3 19 3.6 38.5 0 0
14:25 1021 30.15 851 25.13 29.2 84.6 23 6.6 43.9 0 0
14:30 1021 30.15 851 25.13 29.3 84.8 21 4.9 40.8 0 0
14:35 1021 30.15 851 25.13 29.4 85 21 5 41 0 0
14:40 1021 30.15 851 25.13 29.6 85.2 15 0.7 33.3 0 0
14:45 1021 30.15 851 25.13 29.6 85.3 21 5.5 41.9 0 0
14:50 1021 30.15 851 25.13 29.6 85.3 20 4.5 40.2 0 0
14:55 1021 30.15 850 25.1 29.6 85.3 19 4 39.3 0 0
15:00 1021 30.15 850 25.1 29.5 85 17 1.8 35.3 0 0
15:05 1021 30.15 850 25.1 29.5 85.1 19 3.7 38.7 0 0
15:10 1021 30.15 850 25.1 29.9 85.9 17 2.6 36.7 0 0
15:15 1021 30.15 850 25.1 30 86 19 4.5 40.1 0 0
15:20 1021 30.15 850 25.1 30.1 86.1 18 3.2 37.8 0 0
15:25 1021 30.15 850 25.1 30 86 19 4 39.1 0 0
15:30 1021 30.15 850 25.1 30 86 20 4.6 40.3 0 0
15:35 1021 30.15 850 25.1 29.5 85.1 21 5.1 41.1 0 0
15:40 1021 30.15 850 25.1 29.7 85.5 19 4 39.3 0 0
15:45 1021 30.15 850 25.1 30.1 86.1 18 3.6 38.5 0 0
15:50 1021 30.15 850 25.1 30.3 86.6 17 2.8 37.1 0 0
15:55 1021 30.15 850 25.1 30.5 87 13 -0.2 31.6 0 0
16:00 1021 30.15 850 25.1 30.3 86.6 15 1 33.8 0 0
16:05 1021 30.15 850 25.1 30.6 87.1 13 -0.3 31.4 0 0
16:10 1021 30.15 850 25.1 30.7 87.3 12 -2 28.3 0 0
16:15 1021 30.15 850 25.1 30.9 87.6 11 -3.2 26.3 0 0
16:20 1021 30.15 850 25.1 31.3 88.4 12 -0.9 30.3 0 0
16:25 1021 30.15 850 25.1 31.1 87.9 11 -1.9 28.5 0 0
16:30 1021 30.15 850 25.1 30.5 86.9 14 -0.1 31.8 0 0
16:35 1021 30.15 850 25.1 30.1 86.1 13 -1.5 29.3 0 0
16:40 1021 30.15 850 25.1 30 85.9 12 -2.2 28 0 0
16:45 1021 30.15 850 25.1 30 86 13 -1.4 29.5 0 0
16:50 1020 30.12 850 25.1 29.9 85.8 11 -3.4 25.8 0 0
16:55 1020 30.12 850 25.1 30.2 86.4 13 -1 30.3 0 0
17:00 1020 30.12 850 25.1 30.6 87.1 13 -0.9 30.5 0 0
17:05 1020 30.12 850 25.1 30.4 86.7 10 -3.7 25.4 0 0
17:10 1020 30.12 850 25.1 30 86.1 12 -2.2 28 0 0
17:15 1020 30.12 850 25.1 30.8 87.4 11 -3 26.6 0 0
17:20 1020 30.12 850 25.1 31.3 88.3 10 -3.7 25.4 0 0
17:25 1020 30.12 850 25.1 30.7 87.3 16 2.3 36.1 0 0
17:30 1020 30.12 850 25.1 30.5 86.8 14 0.4 32.7 0 0
17:35 1020 30.12 849 25.07 30.9 87.7 15 1.9 35.4 0 0
17:40 1020 30.12 849 25.07 31.1 88.1 12 -1.3 29.6 0 0
17:45 1020 30.12 849 25.07 31.1 87.9 14 1 33.8 0 0
17:50 1020 30.12 849 25.07 30.1 86.1 13 -0.6 31 0 0
17:55 1020 30.12 849 25.07 29.5 85.1 25 7.5 45.4 0 0
18:00 1020 30.12 849 25.07 29.3 84.8 24 7.1 44.8 0 0
18:05 1020 30.12 849 25.07 29.2 84.5 30 10.3 50.5 0 0
18:10 1020 30.12 849 25.07 28.9 84 25 7 44.6 0 0
18:15 1020 30.12 849 25.07 28.7 83.7 23 5.7 42.2 0 0
18:20 1020 30.12 849 25.07 28.6 83.4 25 7.1 44.8 0 0
18:25 1020 30.12 849 25.07 28.6 83.5 17 1.5 34.8 0 0
18:30 1020 30.12 849 25.07 29.1 84.4 13 -1.4 29.5 0 0
18:35 1020 30.12 849 25.07 29.9 85.7 19 3.9 39 0 0
18:40 1020 30.12 849 25.07 29.4 84.9 28 9.4 48.9 0 0
18:45 1020 30.12 849 25.07 28.5 83.2 26 7.4 45.3 0 0
18:50 1020 30.12 849 25.07 27.9 82.3 37 12.2 53.9 0 0
18:55 1020 30.12 849 25.07 27.3 81.1 40 12.7 54.8 0 0
19:00 1020 30.12 849 25.07 27.2 80.9 33 10 49.9 0 0
19:05 1020 30.12 849 25.07 27.1 80.9 41 13.1 55.7 0 0
19:10 1020 30.12 849 25.07 27.3 81.1 32 9.4 48.9 0 0
19:15 1020 30.12 849 25.07 28 82.5 26 6.9 44.4 0 0
19:20 1020 30.12 849 25.07 28.3 82.9 29 8.9 48.1 0 0
19:25 1020 30.12 849 25.07 28.3 82.9 32 10.4 50.8 0 0
19:30 1020 30.12 849 25.07 28.3 83 35 11.6 52.8 0 0
19:35 1020 30.12 849 25.07 27.8 82 30 8.8 47.8 0 0
19:40 1020 30.12 849 25.07 27.1 80.8 37 11.5 52.7 0 0
19:45 1020 30.12 849 25.07 26 78.7 44 12.8 55.1 0 0
19:50 1020 30.12 849 25.07 25.2 77.4 44 12.2 54 0 0
19:55 1020 30.12 849 25.07 25 76.9 44 11.9 53.5 0 0
20:00 1020 30.12 849 25.07 24.7 76.4 48 13.2 55.7 0 0
20:05 1020 30.12 849 25.07 23.9 75 46 11.7 53 0 0
20:10 1020 30.12 849 25.07 23.2 73.8 48 11.7 53.1 0 0
20:15 1020 30.12 849 25.07 22.4 72.2 55 13 55.4 0 0
20:20 1020 30.12 849 25.07 21.3 70.3 50 10.5 50.8 0 0
20:25 1020 30.12 849 25.07 21 69.8 51 10.5 50.9 0 0
20:30 1020 30.12 849 25.07 20.9 69.6 49 10 50 0 0
20:35 1020 30.12 849 25.07 20.9 69.6 47 9.3 48.7 0 0
20:40 1020 30.12 849 25.07 20.9 69.6 46 9 48.2 0 0
20:45 1020 30.12 849 25.07 20.3 68.6 50 9.7 49.4 0 0
20:50 1020 30.12 849 25.07 19.5 67.1 52 9.4 48.9 0 0
20:55 1020 30.12 849 25.07 18.8 65.8 52 8.7 47.7 0 0
21:00 1020 30.12 849 25.07 18.3 64.9 54 9 48.2 0 0
21:05 1020 30.12 849 25.07 17.3 63.1 61 9.7 49.4 0 0
21:10 1020 30.12 849 25.07 17 62.6 53 7.3 45.2 0 0
21:15 1020 30.12 850 25.1 18.1 64.6 52 8.2 46.7 0 0
21:20 1020 30.12 850 25.1 17.4 63.4 53 8 46.3 0 0
21:25 1020 30.12 850 25.1 17 62.6 54 7.7 45.9 0 0
21:30 1021 30.15 850 25.1 16.4 61.4 57 7.9 46.3 0 0
21:35 1021 30.15 850 25.1 16.6 61.9 49 6 42.8 0 0
21:40 1021 30.15 850 25.1 16.9 62.5 52 7.1 44.7 0 0
21:45 1021 30.15 850 25.1 16.2 61.2 50 5.8 42.4 0 0
21:50 1021 30.15 850 25.1 18.2 64.7 39 4.3 39.7 0 0
21:55 1021 30.15 850 25.1 18.6 65.5 44 6.2 43.1 0 0
22:00 1021 30.15 850 25.1 17.6 63.7 44 5.4 41.8 0 0
22:05 1021 30.15 850 25.1 17 62.6 52 7.2 45 0 0
22:10 1021 30.15 850 25.1 16 60.9 52 6.4 43.5 0 0
22:15 1021 30.15 850 25.1 15.8 60.4 53 6.4 43.5 0 0
22:20 1021 30.15 850 25.1 15.4 59.7 55 6.4 43.6 0 0
22:25 1021 30.15 850 25.1 14.7 58.5 59 7 44.6 0 0
22:30 1021 30.15 850 25.1 14.1 57.3 57 5.8 42.4 0 0
22:35 1021 30.15 850 25.1 14.3 57.7 57 5.9 42.5 0 0
22:40 1021 30.15 850 25.1 13.8 56.8 62 6.6 43.9 0 0
22:45 1021 30.15 851 25.13 13.1 55.5 63 6.3 43.3 0 0
22:50 1021 30.15 851 25.13 12.7 54.9 63 6 42.8 0 0
22:55 1021 30.15 851 25.13 13.2 55.8 62 6.2 43.1 0 0
23:00 1021 30.15 851 25.13 13.1 55.5 62 6.1 42.9 0 0
23:05 1021 30.15 851 25.13 13.7 56.6 52 4.1 39.4 0 0
23:10 1021 30.15 851 25.13 14.7 58.5 49 4.2 39.5 0 0
23:15 1021 30.15 851 25.13 15 59 51 4.9 40.8 0 0
23:20 1021 30.15 851 25.13 14.6 58.2 53 5.1 41.1 0 0
23:25 1022 30.18 851 25.13 13.9 57 56 5.3 41.6 0 0
23:30 1022 30.18 851 25.13 14.8 58.7 44 2.7 36.8 0 0
23:35 1022 30.18 851 25.13 15.7 60.2 45 3.7 38.7 0 0
23:40 1022 30.18 851 25.13 16.2 61.2 41 2.9 37.2 0 0
23:45 1022 30.18 851 25.13 16.1 61 47 4.8 40.6 0 0
23:50 1022 30.18 851 25.13 14.7 58.5 48 3.9 39.1 0 0
23:55 1022 30.18 851 25.13 14.7 58.5 47 3.5 38.3 0 0
24:00 1022 30.18 851 25.13 15.1 59.3 44 2.9 37.2 0 0